createdAt,value
2018-11-03T00:01:23.694Z,3.40
2018-11-03T00:03:53.812Z,3.30
2018-11-03T00:06:23.076Z,3.30
2018-11-03T00:08:52.333Z,3.30
2018-11-03T00:11:21.607Z,3.30
2018-11-03T00:13:50.887Z,3.40
2018-11-03T00:16:20.207Z,3.40
2018-11-03T00:18:49.451Z,3.40
2018-11-03T00:21:18.695Z,3.40
2018-11-03T00:23:48.027Z,3.40
2018-11-03T00:26:17.415Z,3.40
2018-11-03T00:28:46.731Z,3.40
2018-11-03T00:31:16.010Z,3.40
2018-11-03T00:33:45.336Z,3.40
2018-11-03T00:36:14.639Z,3.40
2018-11-03T00:38:43.884Z,3.40
2018-11-03T00:41:13.112Z,3.30
2018-11-03T00:43:42.369Z,3.40
2018-11-03T00:46:11.662Z,3.30
2018-11-03T00:48:41.211Z,3.30
2018-11-03T00:51:10.447Z,3.40
2018-11-03T00:53:39.747Z,3.40
2018-11-03T00:56:09.028Z,3.40
2018-11-03T00:58:38.269Z,3.40
2018-11-03T01:01:07.572Z,3.40
2018-11-03T01:03:36.888Z,3.40
2018-11-03T01:06:06.228Z,3.40
2018-11-03T01:08:35.511Z,3.40
2018-11-03T01:11:04.771Z,3.30
2018-11-03T01:13:34.017Z,3.40
2018-11-03T01:16:04.295Z,3.30
2018-11-03T01:18:33.559Z,3.40
2018-11-03T01:21:02.924Z,3.30
2018-11-03T01:23:32.245Z,3.30
2018-11-03T01:26:02.236Z,3.40
2018-11-03T01:28:37.968Z,3.30
2018-11-03T01:31:07.224Z,3.30
2018-11-03T01:33:36.463Z,3.30
2018-11-03T01:36:05.875Z,3.30
2018-11-03T01:38:35.119Z,3.30
2018-11-03T01:41:04.505Z,3.20
2018-11-03T01:43:33.776Z,3.20
2018-11-03T01:46:03.004Z,3.10
2018-11-03T01:48:33.003Z,3.10
2018-11-03T01:51:02.325Z,3.00
2018-11-03T01:53:31.550Z,3.00
2018-11-03T01:56:00.787Z,3.00
2018-11-03T01:58:30.232Z,2.90
2018-11-03T02:00:59.492Z,2.90
2018-11-03T02:03:28.724Z,2.90
2018-11-03T02:05:58.000Z,2.90
2018-11-03T02:08:27.267Z,2.90
2018-11-03T02:10:56.514Z,3.10
2018-11-03T02:13:25.795Z,3.10
2018-11-03T02:15:55.070Z,3.20
2018-11-03T02:18:24.343Z,3.20
2018-11-03T02:20:53.589Z,3.20
2018-11-03T02:23:22.848Z,3.10
2018-11-03T02:25:52.107Z,3.10
2018-11-03T02:28:21.389Z,3.00
2018-11-03T02:30:50.622Z,3.00
2018-11-03T02:33:19.860Z,3.00
2018-11-03T02:35:49.222Z,3.00
2018-11-03T02:38:18.496Z,3.10
2018-11-03T02:40:47.774Z,3.10
2018-11-03T02:43:17.001Z,3.00
2018-11-03T02:45:46.504Z,3.00
2018-11-03T02:48:15.810Z,2.90
2018-11-03T02:50:45.105Z,2.80
2018-11-03T02:53:15.128Z,2.60
2018-11-03T02:55:44.395Z,2.60
2018-11-03T02:58:13.644Z,2.70
2018-11-03T03:00:43.010Z,2.70
2018-11-03T03:03:13.028Z,2.70
2018-11-03T03:05:42.268Z,2.70
2018-11-03T03:08:11.674Z,2.70
2018-11-03T03:10:41.002Z,2.60
2018-11-03T03:13:10.253Z,2.60
2018-11-03T03:15:39.501Z,2.50
2018-11-03T03:18:08.791Z,2.50
2018-11-03T03:20:38.828Z,2.50
2018-11-03T03:23:08.075Z,2.50
2018-11-03T03:25:37.351Z,2.40
2018-11-03T03:28:07.418Z,2.40
2018-11-03T03:30:37.010Z,2.50
2018-11-03T03:33:06.367Z,2.40
2018-11-03T03:35:35.627Z,2.40
2018-11-03T03:38:04.870Z,2.50
2018-11-03T03:40:34.776Z,2.50
2018-11-03T03:43:04.068Z,2.40
2018-11-03T03:45:33.323Z,2.40
2018-11-03T03:48:02.572Z,2.30
2018-11-03T03:50:31.859Z,2.30
2018-11-03T03:53:01.086Z,2.40
2018-11-03T03:55:30.976Z,2.50
2018-11-03T03:58:00.241Z,2.50
2018-11-03T04:00:29.517Z,2.50
2018-11-03T04:02:58.818Z,2.50
2018-11-03T04:05:28.119Z,2.50
2018-11-03T04:07:57.501Z,2.50
2018-11-03T04:10:26.859Z,2.50
2018-11-03T04:12:56.092Z,2.50
2018-11-03T04:15:25.389Z,2.50
2018-11-03T04:17:54.617Z,2.50
2018-11-03T04:20:23.944Z,2.60
2018-11-03T04:22:53.903Z,2.50
2018-11-03T04:25:23.147Z,2.50
2018-11-03T04:27:52.466Z,2.50
2018-11-03T04:30:21.729Z,2.50
2018-11-03T04:32:50.987Z,2.50
2018-11-03T04:35:20.246Z,2.60
2018-11-03T04:37:49.532Z,2.60
2018-11-03T04:40:18.812Z,2.50
2018-11-03T04:42:48.035Z,2.40
2018-11-03T04:45:17.305Z,2.40
2018-11-03T04:47:46.511Z,2.40
2018-11-03T04:50:15.864Z,2.30
2018-11-03T04:52:45.089Z,2.30
2018-11-03T04:55:14.385Z,2.30
2018-11-03T04:57:43.629Z,2.40
2018-11-03T05:00:12.961Z,2.30
2018-11-03T05:02:42.197Z,2.40
2018-11-03T05:05:11.508Z,2.50
2018-11-03T05:07:40.896Z,2.60
2018-11-03T05:10:10.282Z,2.60
2018-11-03T05:12:39.486Z,2.60
2018-11-03T05:15:08.780Z,2.60
2018-11-03T05:17:38.035Z,2.60
2018-11-03T05:20:07.411Z,2.50
2018-11-03T05:22:36.662Z,2.50
2018-11-03T05:25:06.922Z,2.50
2018-11-03T05:27:36.189Z,2.50
2018-11-03T05:30:05.918Z,2.40
2018-11-03T05:32:35.211Z,2.40
2018-11-03T05:35:04.535Z,2.40
2018-11-03T05:37:33.804Z,2.30
2018-11-03T05:40:03.121Z,2.30
2018-11-03T05:42:32.365Z,2.30
2018-11-03T05:45:01.609Z,2.30
2018-11-03T05:47:30.865Z,2.30
2018-11-03T05:50:00.128Z,2.30
2018-11-03T05:52:29.397Z,2.30
2018-11-03T05:54:58.664Z,2.30
2018-11-03T05:57:27.958Z,2.20
2018-11-03T05:59:57.286Z,2.20
2018-11-03T06:02:27.327Z,2.20
2018-11-03T06:04:56.577Z,2.20
2018-11-03T06:07:26.350Z,2.20
2018-11-03T06:09:55.691Z,2.20
2018-11-03T06:12:24.945Z,2.20
2018-11-03T06:14:54.224Z,2.10
2018-11-03T06:17:23.490Z,2.10
2018-11-03T06:19:52.750Z,2.10
2018-11-03T06:22:22.001Z,2.10
2018-11-03T06:24:51.251Z,2.10
2018-11-03T06:27:20.497Z,2.20
2018-11-03T06:29:50.022Z,2.20
2018-11-03T06:32:19.348Z,2.10
2018-11-03T06:34:48.613Z,2.20
2018-11-03T06:37:17.836Z,2.20
2018-11-03T06:39:47.146Z,2.30
2018-11-03T06:42:16.427Z,2.30
2018-11-03T06:44:45.767Z,2.20
2018-11-03T06:47:15.091Z,2.20
2018-11-03T06:49:44.368Z,2.30
2018-11-03T06:52:13.741Z,2.30
2018-11-03T06:54:42.944Z,2.30
2018-11-03T06:57:12.194Z,2.30
2018-11-03T06:59:41.557Z,2.30
2018-11-03T07:02:10.882Z,2.30
2018-11-03T07:04:40.151Z,2.30
2018-11-03T07:07:09.472Z,2.30
2018-11-03T07:09:38.817Z,2.30
2018-11-03T07:12:08.187Z,2.30
2018-11-03T07:14:37.452Z,2.30
2018-11-03T07:17:06.728Z,2.40
2018-11-03T07:19:35.954Z,2.40
2018-11-03T07:22:05.298Z,2.40
2018-11-03T07:24:34.544Z,2.40
2018-11-03T07:27:03.866Z,2.30
2018-11-03T07:29:33.218Z,2.30
2018-11-03T07:32:02.386Z,2.30
2018-11-03T07:34:31.622Z,2.40
2018-11-03T07:37:01.140Z,2.40
2018-11-03T07:39:30.313Z,2.40
2018-11-03T07:41:59.556Z,2.40
2018-11-03T07:44:28.834Z,2.40
2018-11-03T07:46:58.221Z,2.40
2018-11-03T07:49:27.679Z,2.40
2018-11-03T07:51:56.858Z,2.40
2018-11-03T07:54:26.134Z,2.40
2018-11-03T07:56:55.384Z,2.50
2018-11-03T07:59:24.640Z,2.60
2018-11-03T08:01:54.113Z,2.60
2018-11-03T08:04:23.484Z,2.70
2018-11-03T08:06:52.843Z,2.60
2018-11-03T08:09:22.092Z,2.70
2018-11-03T08:11:51.506Z,2.70
2018-11-03T08:14:20.760Z,2.80
2018-11-03T08:16:50.121Z,2.90
2018-11-03T08:19:19.409Z,2.90
2018-11-03T08:21:48.662Z,3.00
2018-11-03T08:24:18.133Z,2.90
2018-11-03T08:26:48.108Z,2.90
2018-11-03T08:29:17.377Z,2.90
2018-11-03T08:31:46.698Z,3.00
2018-11-03T08:34:16.655Z,3.00
2018-11-03T08:36:45.962Z,3.00
2018-11-03T08:39:15.204Z,3.10
2018-11-03T08:41:44.442Z,3.20
2018-11-03T08:44:13.824Z,3.30
2018-11-03T08:46:43.993Z,3.40
2018-11-03T08:49:13.302Z,3.50
2018-11-03T08:51:42.669Z,3.60
2018-11-03T08:54:11.933Z,3.70
2018-11-03T08:56:41.209Z,3.80
2018-11-03T08:59:10.544Z,3.80
2018-11-03T09:01:39.857Z,3.80
2018-11-03T09:04:09.111Z,3.90
2018-11-03T09:06:38.383Z,3.90
2018-11-03T09:09:07.903Z,3.90
2018-11-03T09:11:37.181Z,4.10
2018-11-03T09:14:06.486Z,4.10
2018-11-03T09:16:35.795Z,4.20
2018-11-03T09:19:05.444Z,4.30
2018-11-03T09:21:34.935Z,4.50
2018-11-03T09:24:04.279Z,4.60
2018-11-03T09:26:33.964Z,4.80
2018-11-03T09:29:03.548Z,4.90
2018-11-03T09:31:32.782Z,5.10
2018-11-03T09:34:02.080Z,5.20
2018-11-03T09:36:31.310Z,5.30
2018-11-03T09:39:00.686Z,5.40
2018-11-03T09:41:29.887Z,5.60
2018-11-03T09:43:59.258Z,5.70
2018-11-03T09:46:28.636Z,5.80
2018-11-03T09:48:57.936Z,6.00
2018-11-03T09:51:27.236Z,6.10
2018-11-03T09:53:56.595Z,6.30
2018-11-03T09:56:25.921Z,6.40
2018-11-03T09:58:55.147Z,6.50
2018-11-03T10:01:24.458Z,6.60
2018-11-03T10:03:53.713Z,6.70
2018-11-03T10:06:23.080Z,6.90
2018-11-03T10:08:52.359Z,6.90
2018-11-03T10:11:21.644Z,7.00
2018-11-03T10:13:50.895Z,7.20
2018-11-03T10:16:20.164Z,7.30
2018-11-03T10:18:49.432Z,7.40
2018-11-03T10:21:18.756Z,7.50
2018-11-03T10:23:48.101Z,7.60
2018-11-03T10:26:17.407Z,7.80
2018-11-03T10:28:46.655Z,8.00
2018-11-03T10:31:15.923Z,8.10
2018-11-03T10:33:45.258Z,8.20
2018-11-03T10:36:14.478Z,8.40
2018-11-03T10:38:43.798Z,8.40
2018-11-03T10:41:13.022Z,8.50
2018-11-03T10:43:42.375Z,8.60
2018-11-03T10:46:12.411Z,8.80
2018-11-03T10:48:41.700Z,8.90
2018-11-03T10:51:10.998Z,8.90
2018-11-03T10:53:40.768Z,9.00
2018-11-03T10:56:09.975Z,9.00
2018-11-03T10:58:39.252Z,9.10
2018-11-03T11:01:13.917Z,9.20
2018-11-03T11:03:48.566Z,9.30
2018-11-03T11:06:23.070Z,9.30
2018-11-03T11:08:57.653Z,9.50
2018-11-03T11:11:32.204Z,9.60
2018-11-03T11:14:01.975Z,9.70
2018-11-03T11:16:31.252Z,9.80
2018-11-03T11:19:00.430Z,9.80
2018-11-03T11:21:29.676Z,9.90
2018-11-03T11:23:58.986Z,10.00
2018-11-03T11:26:28.361Z,10.00
2018-11-03T11:28:57.624Z,10.10
2018-11-03T11:31:26.897Z,10.40
2018-11-03T11:33:56.226Z,10.50
2018-11-03T11:36:25.511Z,10.40
2018-11-03T11:38:54.762Z,10.50
2018-11-03T11:41:24.052Z,10.60
2018-11-03T11:43:53.548Z,10.50
2018-11-03T11:46:22.858Z,10.40
2018-11-03T11:48:52.180Z,10.70
2018-11-03T11:51:21.420Z,10.80
2018-11-03T11:53:50.912Z,10.70
2018-11-03T11:56:21.116Z,10.80
2018-11-03T11:58:50.427Z,10.90
2018-11-03T12:01:19.879Z,11.00
2018-11-03T12:03:49.130Z,11.10
2018-11-03T12:06:18.427Z,11.30
2018-11-03T12:08:47.687Z,11.10
2018-11-03T12:11:16.952Z,11.10
2018-11-03T12:13:46.187Z,11.00
2018-11-03T12:16:15.511Z,10.80
2018-11-03T12:18:44.704Z,10.90
2018-11-03T12:21:14.771Z,10.90
2018-11-03T12:23:44.131Z,10.90
2018-11-03T12:26:13.413Z,11.30
2018-11-03T12:28:42.809Z,11.20
2018-11-03T12:31:12.046Z,11.40
2018-11-03T12:33:41.315Z,11.50
2018-11-03T12:36:11.164Z,11.40
2018-11-03T12:38:40.494Z,11.60
2018-11-03T12:41:10.440Z,11.40
2018-11-03T12:43:39.724Z,11.60
2018-11-03T12:46:09.098Z,11.60
2018-11-03T12:48:38.411Z,11.40
2018-11-03T12:51:07.681Z,11.30
2018-11-03T12:53:36.936Z,11.30
2018-11-03T12:56:06.250Z,11.30
2018-11-03T12:58:35.540Z,11.00
2018-11-03T13:01:04.871Z,10.80
2018-11-03T13:03:34.229Z,10.80
2018-11-03T13:06:03.476Z,10.70
2018-11-03T13:08:32.928Z,10.50
2018-11-03T13:11:02.149Z,10.40
2018-11-03T13:13:31.503Z,10.30
2018-11-03T13:16:00.781Z,10.40
2018-11-03T13:18:30.042Z,10.60
2018-11-03T13:20:59.511Z,10.80
2018-11-03T13:23:29.496Z,10.80
2018-11-03T13:25:58.830Z,11.10
2018-11-03T13:28:28.128Z,11.20
2018-11-03T13:30:57.374Z,11.30
2018-11-03T13:33:26.764Z,11.50
2018-11-03T13:35:56.003Z,11.60
2018-11-03T13:38:25.227Z,11.70
2018-11-03T13:40:54.551Z,11.80
2018-11-03T13:43:23.806Z,11.90
2018-11-03T13:45:53.159Z,11.70
2018-11-03T13:48:22.393Z,11.50
2018-11-03T13:50:51.677Z,11.20
2018-11-03T13:53:20.941Z,11.10
2018-11-03T13:55:50.201Z,10.70
2018-11-03T13:58:19.464Z,10.40
2018-11-03T14:00:48.716Z,10.30
2018-11-03T14:03:17.959Z,10.40
2018-11-03T14:05:47.218Z,10.30
2018-11-03T14:08:16.564Z,10.30
2018-11-03T14:10:45.873Z,10.20
2018-11-03T14:13:15.302Z,10.00
2018-11-03T14:15:44.811Z,9.90
2018-11-03T14:18:15.058Z,9.80
2018-11-03T14:20:44.303Z,9.70
2018-11-03T14:23:13.855Z,9.70
2018-11-03T14:25:43.036Z,9.70
2018-11-03T14:28:12.274Z,9.80
2018-11-03T14:30:41.520Z,9.80
2018-11-03T14:33:11.072Z,9.80
2018-11-03T14:35:40.297Z,9.60
2018-11-03T14:38:09.559Z,9.50
2018-11-03T14:40:38.798Z,9.50
2018-11-03T14:43:08.132Z,9.60
2018-11-03T14:45:41.328Z,9.80
2018-11-03T14:48:10.560Z,9.80
2018-11-03T14:50:39.864Z,9.80
2018-11-03T14:53:09.125Z,9.90
2018-11-03T14:55:38.379Z,10.20
2018-11-03T14:58:07.639Z,10.20
2018-11-03T15:00:38.007Z,10.00
2018-11-03T15:03:08.311Z,9.90
2018-11-03T15:05:37.660Z,9.60
2018-11-03T15:08:06.989Z,9.20
2018-11-03T15:10:36.239Z,9.00
2018-11-03T15:13:05.761Z,8.90
2018-11-03T15:15:35.004Z,8.80
2018-11-03T15:18:04.261Z,8.70
2018-11-03T15:20:33.534Z,8.60
2018-11-03T15:23:02.793Z,8.50
2018-11-03T15:25:32.119Z,8.50
2018-11-03T15:28:01.461Z,8.40
2018-11-03T15:30:30.994Z,8.30
2018-11-03T15:33:00.324Z,8.20
2018-11-03T15:35:29.729Z,8.10
2018-11-03T15:37:58.992Z,8.00
2018-11-03T15:40:28.247Z,7.90
2018-11-03T15:42:57.480Z,7.80
2018-11-03T15:45:27.645Z,7.80
2018-11-03T15:47:56.937Z,7.70
2018-11-03T15:50:26.234Z,7.60
2018-11-03T15:52:55.746Z,7.50
2018-11-03T15:55:25.075Z,7.40
2018-11-03T15:57:54.346Z,7.40
2018-11-03T16:00:23.658Z,7.30
2018-11-03T16:02:53.034Z,7.30
2018-11-03T16:05:22.359Z,7.20
2018-11-03T16:07:51.724Z,7.10
2018-11-03T16:10:20.994Z,7.00
2018-11-03T16:12:50.393Z,6.90
2018-11-03T16:15:19.695Z,6.80
2018-11-03T16:17:49.458Z,6.70
2018-11-03T16:20:18.750Z,6.70
2018-11-03T16:22:48.091Z,6.60
2018-11-03T16:25:17.321Z,6.60
2018-11-03T16:27:46.578Z,6.50
2018-11-03T16:30:17.002Z,6.50
2018-11-03T16:32:46.476Z,6.40
2018-11-03T16:35:15.782Z,6.40
2018-11-03T16:37:45.104Z,6.30
2018-11-03T16:40:15.474Z,6.20
2018-11-03T16:42:45.498Z,6.10
2018-11-03T16:45:16.004Z,6.70
2018-11-03T16:47:46.145Z,6.10
2018-11-03T16:50:16.873Z,6.00
2018-11-03T16:52:46.292Z,6.00
2018-11-03T16:55:15.860Z,6.00
2018-11-03T16:57:45.146Z,6.20
2018-11-03T17:00:15.718Z,6.10
2018-11-03T17:02:45.176Z,6.10
2018-11-03T17:05:15.143Z,6.00
2018-11-03T17:07:44.534Z,5.90
2018-11-03T17:10:14.928Z,5.80
2018-11-03T17:12:45.503Z,5.80
2018-11-03T17:15:15.033Z,5.70
2018-11-03T17:17:44.376Z,5.70
2018-11-03T17:20:13.678Z,5.60
2018-11-03T17:22:42.976Z,5.50
2018-11-03T17:25:12.875Z,5.50
2018-11-03T17:27:42.116Z,5.40
2018-11-03T17:30:14.332Z,5.30
2018-11-03T17:32:44.185Z,5.30
2018-11-03T17:35:13.946Z,5.30
2018-11-03T17:37:45.411Z,5.30
2018-11-03T17:40:16.481Z,5.30
2018-11-03T17:42:46.021Z,5.20
2018-11-03T17:45:15.348Z,5.20
2018-11-03T17:47:44.614Z,5.20
2018-11-03T17:50:14.336Z,5.20
2018-11-03T17:52:43.608Z,5.20
2018-11-03T17:55:12.848Z,5.20
2018-11-03T17:57:42.132Z,5.10
2018-11-03T18:00:13.893Z,5.20
2018-11-03T18:02:44.134Z,5.20
2018-11-03T18:05:13.788Z,5.20
2018-11-03T18:07:43.532Z,5.20
2018-11-03T18:10:13.351Z,5.20
2018-11-03T18:12:43.250Z,5.30
2018-11-03T18:15:12.863Z,5.30
2018-11-03T18:17:42.776Z,5.20
2018-11-03T18:20:12.570Z,5.30
2018-11-03T18:22:41.866Z,5.30
2018-11-03T18:25:11.124Z,5.60
2018-11-03T18:27:40.389Z,5.30
2018-11-03T18:30:11.225Z,5.20
2018-11-03T18:32:40.938Z,5.20
2018-11-03T18:35:10.725Z,5.20
2018-11-03T18:37:40.734Z,5.30
2018-11-03T18:40:10.255Z,5.20
2018-11-03T18:42:39.540Z,5.10
2018-11-03T18:45:09.216Z,5.10
2018-11-03T18:47:39.029Z,5.10
2018-11-03T18:50:10.156Z,5.00
2018-11-03T18:52:39.529Z,5.00
2018-11-03T18:55:09.700Z,5.00
2018-11-03T18:57:39.646Z,4.90
2018-11-03T19:00:09.706Z,4.90
2018-11-03T19:02:39.484Z,4.90
2018-11-03T19:05:09.412Z,4.90
2018-11-03T19:07:38.749Z,4.90
2018-11-03T19:10:08.836Z,4.90
2018-11-03T19:12:38.152Z,4.80
2018-11-03T19:15:08.873Z,4.70
2018-11-03T19:17:38.267Z,4.70
2018-11-03T19:20:09.451Z,4.60
2018-11-03T19:22:38.849Z,4.60
2018-11-03T19:25:09.868Z,4.60
2018-11-03T19:27:41.107Z,4.60
2018-11-03T19:30:11.901Z,4.60
2018-11-03T19:32:42.551Z,4.50
2018-11-03T19:35:11.893Z,4.40
2018-11-03T19:37:41.893Z,4.40
2018-11-03T19:40:12.422Z,4.30
2018-11-03T19:42:42.342Z,4.40
2018-11-03T19:45:12.530Z,4.50
2018-11-03T19:47:41.782Z,4.30
2018-11-03T19:50:11.171Z,4.40
2018-11-03T19:52:40.493Z,4.40
2018-11-03T19:55:09.848Z,4.40
2018-11-03T19:57:39.148Z,4.40
2018-11-03T20:00:11.828Z,4.40
2018-11-03T20:02:41.257Z,4.40
2018-11-03T20:05:11.180Z,4.40
2018-11-03T20:07:41.540Z,4.50
2018-11-03T20:10:11.294Z,4.50
2018-11-03T20:12:40.600Z,4.40
2018-11-03T20:15:11.031Z,4.30
2018-11-03T20:17:40.383Z,4.30
2018-11-03T20:20:11.275Z,4.30
2018-11-03T20:22:40.567Z,4.30
2018-11-03T20:25:11.196Z,4.20
2018-11-03T20:27:40.563Z,4.20
2018-11-03T20:30:13.051Z,4.30
2018-11-03T20:32:42.565Z,4.30
2018-11-03T20:35:11.824Z,4.30
2018-11-03T20:37:41.208Z,4.30
2018-11-03T20:40:12.001Z,4.20
2018-11-03T20:42:41.248Z,4.00
2018-11-03T20:45:10.521Z,4.00
2018-11-03T20:47:39.799Z,3.90
2018-11-03T20:50:11.562Z,3.90
2018-11-03T20:52:40.838Z,3.90
2018-11-03T20:55:11.121Z,3.90
2018-11-03T20:57:40.899Z,3.90
2018-11-03T21:00:12.648Z,3.80
2018-11-03T21:02:41.922Z,3.80
2018-11-03T21:05:11.760Z,3.80
2018-11-03T21:07:42.104Z,3.70
2018-11-03T21:10:12.580Z,3.70
2018-11-03T21:12:41.857Z,3.70
2018-11-03T21:15:11.262Z,3.60
2018-11-03T21:17:41.074Z,3.60
2018-11-03T21:20:10.363Z,3.60
2018-11-03T21:22:39.680Z,3.50
2018-11-03T21:25:08.975Z,3.50
2018-11-03T21:27:38.220Z,3.60
2018-11-03T21:30:09.094Z,3.50
2018-11-03T21:32:38.364Z,3.50
2018-11-03T21:35:07.672Z,3.40
2018-11-03T21:37:37.527Z,3.40
2018-11-03T21:40:07.481Z,3.40
2018-11-03T21:42:36.942Z,3.40
2018-11-03T21:45:07.359Z,3.30
2018-11-03T21:47:36.613Z,3.30
2018-11-03T21:50:06.481Z,3.30
2018-11-03T21:52:35.881Z,3.20
2018-11-03T21:55:05.751Z,3.20
2018-11-03T21:57:35.423Z,3.10
2018-11-03T22:00:05.735Z,3.10
2018-11-03T22:02:34.971Z,3.10
2018-11-03T22:05:04.628Z,3.10
2018-11-03T22:07:33.882Z,3.00
2018-11-03T22:10:03.182Z,3.00
2018-11-03T22:12:32.425Z,3.00
2018-11-03T22:15:01.842Z,3.00
2018-11-03T22:17:31.748Z,3.00
2018-11-03T22:20:01.994Z,2.90
2018-11-03T22:22:31.272Z,2.90
2018-11-03T22:25:00.568Z,3.00
2018-11-03T22:27:29.805Z,3.00
2018-11-03T22:29:59.784Z,3.10
2018-11-03T22:32:29.115Z,3.10
2018-11-03T22:34:58.985Z,3.00
2018-11-03T22:37:28.266Z,3.00
2018-11-03T22:39:57.532Z,3.00
2018-11-03T22:42:27.293Z,3.00
2018-11-03T22:44:56.545Z,3.00
2018-11-03T22:47:25.810Z,3.00
2018-11-03T22:49:55.066Z,2.90
2018-11-03T22:52:25.085Z,2.90
2018-11-03T22:54:55.231Z,3.00
2018-11-03T22:57:24.489Z,3.00
2018-11-03T22:59:53.757Z,3.00
2018-11-03T23:02:23.108Z,3.00
2018-11-03T23:04:53.185Z,3.00
2018-11-03T23:07:23.561Z,3.00
2018-11-03T23:09:52.846Z,3.00
2018-11-03T23:12:23.107Z,3.00
2018-11-03T23:14:52.359Z,3.00
2018-11-03T23:17:21.688Z,3.00
2018-11-03T23:19:51.128Z,3.00
2018-11-03T23:22:20.403Z,2.90
2018-11-03T23:24:49.641Z,2.90
2018-11-03T23:27:18.888Z,2.90
2018-11-03T23:29:48.243Z,2.80
2018-11-03T23:32:17.552Z,2.80
2018-11-03T23:34:46.809Z,2.70
2018-11-03T23:37:16.074Z,2.70
2018-11-03T23:39:45.375Z,2.60
2018-11-03T23:42:14.639Z,2.70
2018-11-03T23:44:43.967Z,2.60
2018-11-03T23:47:13.197Z,2.60
2018-11-03T23:49:42.426Z,2.60
2018-11-03T23:52:12.303Z,2.60
2018-11-03T23:54:41.597Z,2.50
2018-11-03T23:57:10.800Z,2.40
2018-11-03T23:59:40.031Z,2.50
